Time;durP1;ratioP1;P1;durP2;ratioP2;P2;SDS_P1;SDS_P2;PMS_P1;PMS_P2;Temp;Humidity;BMP_temperature;BMP_pressure;BME280_temperature;BME280_humidity;BME280_pressure;Samples;Min_cycle;Max_cycle;Signal;HPM_P1;HPM_P2
2021/12/01 00:02:37;;;;;;;;;;;17.60;46.70;16.30;99635.00;;;;5057921;28;20019;-62
2021/12/01 00:05:24;;;;;;;;;;;17.60;46.70;16.30;99626.00;;;;5069302;28;19924;-61
2021/12/01 00:08:10;;;;;;;;;;;17.60;46.80;16.30;99631.00;;;;5059031;28;20010;-61
2021/12/01 00:10:56;;;;;;;;;;;17.60;46.70;16.30;99623.00;;;;5073458;28;19923;-61
2021/12/01 00:28:32;;;;;;;;;;;17.50;46.90;16.30;99568.00;;;;5073104;28;20377;-62
2021/12/01 00:31:18;;;;;;;;;;;17.50;47.00;16.30;99563.00;;;;5071568;28;19927;-61
2021/12/01 00:34:04;;;;;;;;;;;17.50;47.10;16.30;99555.00;;;;5065887;28;20289;-61
2021/12/01 00:36:50;;;;;;;;;;;17.50;47.10;16.30;99548.00;;;;5063595;28;19950;-61
2021/12/01 00:39:37;;;;;;;;;;;17.50;47.10;16.30;99545.00;;;;5066098;28;19925;-61
2021/12/01 00:42:23;;;;;;;;;;;17.50;47.10;16.30;99550.00;;;;5051978;28;19917;-61
2021/12/01 00:45:17;;;;;;;;;;;17.50;47.20;16.30;99533.00;;;;5056065;28;19956;-61
2021/12/01 00:48:04;;;;;;;;;;;17.50;47.10;16.30;99532.00;;;;5038035;28;19970;-61
2021/12/01 00:50:50;;;;;;;;;;;17.50;47.20;16.30;99521.00;;;;5040187;28;20384;-62
2021/12/01 00:53:37;;;;;;;;;;;17.50;47.20;16.30;99513.00;;;;5048092;28;19916;-62
2021/12/01 00:56:23;;;;;;;;;;;17.40;47.20;16.30;99510.00;;;;5037122;28;19940;-62
2021/12/01 00:59:09;;;;;;;;;;;17.50;47.40;16.30;99501.00;;;;5055240;28;19959;-61
2021/12/01 01:01:55;;;;;;;;;;;17.50;47.30;16.30;99491.00;;;;5052189;28;20274;-61
2021/12/01 01:04:41;;;;;;;;;;;17.50;47.30;16.30;99485.00;;;;5049011;28;20105;-62
2021/12/01 01:07:27;;;;;;;;;;;17.50;47.40;16.30;99496.00;;;;5048356;28;19931;-61
2021/12/01 01:16:27;;;;;;;;;;;17.50;47.50;16.30;99473.00;;;;5048070;28;20011;-61
2021/12/01 01:19:14;;;;;;;;;;;17.50;47.70;16.30;99468.00;;;;5049750;28;19917;-62
2021/12/01 01:22:00;;;;;;;;;;;17.50;47.60;16.30;99455.00;;;;5046993;28;19929;-62
2021/12/01 01:24:47;;;;;;;;;;;17.50;47.70;16.30;99453.00;;;;5066154;28;19920;-62
2021/12/01 01:27:33;;;;;;;;;;;17.40;47.70;16.30;99436.00;;;;5047488;28;20374;-62
2021/12/01 01:30:19;;;;;;;;;;;17.40;47.70;16.30;99434.00;;;;5059277;28;19921;-61
2021/12/01 01:33:05;;;;;;;;;;;17.40;47.80;16.30;99435.00;;;;5048384;28;19956;-61
2021/12/01 01:35:52;;;;;;;;;;;17.50;47.80;16.30;99430.00;;;;5050788;28;19916;-61
2021/12/01 01:38:38;;;;;;;;;;;17.40;47.90;16.30;99425.00;;;;5057785;28;20373;-61
2021/12/01 01:41:24;;;;;;;;;;;17.50;47.90;16.30;99402.00;;;;5074969;28;19974;-61
2021/12/01 01:44:10;;;;;;;;;;;17.50;47.90;16.30;99386.00;;;;5056548;28;19959;-62
2021/12/01 01:46:56;;;;;;;;;;;17.50;48.00;16.30;99382.00;;;;5056911;28;19927;-61
2021/12/01 01:52:29;;;;;;;;;;;17.40;48.00;16.30;99383.00;;;;5052464;28;19921;-62
2021/12/01 01:55:15;;;;;;;;;;;17.40;47.90;16.30;99365.00;;;;5062122;28;20385;-62
2021/12/01 01:58:01;;;;;;;;;;;17.40;48.00;16.30;99364.00;;;;5071025;28;19921;-62
2021/12/01 02:00:52;;;;;;;;;;;17.50;48.10;16.30;99356.00;;;;5078866;28;20282;-62
2021/12/01 02:03:43;;;;;;;;;;;17.40;48.10;16.30;99350.00;;;;5045360;28;19920;-62
2021/12/01 02:06:30;;;;;;;;;;;17.40;48.10;16.30;99353.00;;;;5089374;28;19962;-61
2021/12/01 02:09:20;;;;;;;;;;;17.40;48.20;16.30;99349.00;;;;5053758;28;19917;-62
2021/12/01 02:12:06;;;;;;;;;;;17.40;48.20;16.30;99346.00;;;;5091174;27;19916;-61
2021/12/01 02:14:52;;;;;;;;;;;17.40;48.20;16.30;99344.00;;;;5088229;28;20042;-61
2021/12/01 02:17:38;;;;;;;;;;;17.40;48.30;16.30;99329.00;;;;5054638;28;19916;-61
2021/12/01 02:20:25;;;;;;;;;;;17.40;48.20;16.30;99316.00;;;;5080257;28;19920;-62
2021/12/01 02:23:11;;;;;;;;;;;17.40;48.30;16.30;99314.00;;;;5053685;28;20015;-62
2021/12/01 02:25:57;;;;;;;;;;;17.40;48.30;16.30;99304.00;;;;5079708;28;20320;-61
2021/12/01 02:28:44;;;;;;;;;;;17.40;48.30;16.30;99304.00;;;;5041904;28;19917;-62
2021/12/01 02:31:34;;;;;;;;;;;17.40;48.30;16.30;99290.00;;;;5061792;28;19916;-62
2021/12/01 02:34:22;;;;;;;;;;;17.40;48.40;16.30;99268.00;;;;5073213;28;20255;-62
2021/12/01 02:37:08;;;;;;;;;;;17.40;48.40;16.30;99268.00;;;;5071196;28;19916;-62
2021/12/01 02:39:54;;;;;;;;;;;17.40;48.40;16.30;99260.00;;;;5073213;28;20411;-62
2021/12/01 02:42:40;;;;;;;;;;;17.40;48.40;16.30;99256.00;;;;5056167;28;19978;-61
2021/12/01 02:45:26;;;;;;;;;;;17.40;48.40;16.30;99252.00;;;;5065962;28;20315;-62
2021/12/01 02:48:14;;;;;;;;;;;17.40;48.50;16.30;99253.00;;;;5074006;28;19928;-61
2021/12/01 02:51:04;;;;;;;;;;;17.40;48.50;16.30;99245.00;;;;5079685;28;20269;-62
2021/12/01 02:53:50;;;;;;;;;;;17.40;48.50;16.30;99229.00;;;;5044922;28;19917;-61
2021/12/01 02:56:36;;;;;;;;;;;17.40;48.50;16.30;99231.00;;;;5069208;28;19924;-61
2021/12/01 02:59:23;;;;;;;;;;;17.30;48.40;16.30;99220.00;;;;5077145;28;20019;-61
2021/12/01 03:02:09;;;;;;;;;;;17.40;48.50;16.20;99220.00;;;;5058739;28;19916;-61
2021/12/01 03:04:55;;;;;;;;;;;17.40;48.50;16.20;99212.00;;;;5057571;28;19923;-61
2021/12/01 03:07:41;;;;;;;;;;;17.30;48.50;16.20;99197.00;;;;5077392;28;19965;-62
2021/12/01 03:10:27;;;;;;;;;;;17.40;48.60;16.20;99191.00;;;;5075268;28;19963;-62
2021/12/01 03:13:13;;;;;;;;;;;17.30;48.50;16.20;99184.00;;;;5056872;28;19916;-61
2021/12/01 03:16:00;;;;;;;;;;;17.40;48.60;16.20;99176.00;;;;5063454;28;20399;-61
2021/12/01 03:18:46;;;;;;;;;;;17.40;48.60;16.20;99173.00;;;;5059197;28;19993;-62
2021/12/01 03:21:35;;;;;;;;;;;17.30;48.50;16.20;99178.00;;;;5056092;28;19927;-61
2021/12/01 03:24:21;;;;;;;;;;;17.40;48.60;16.20;99178.00;;;;5072956;28;19939;-62
2021/12/01 03:27:07;;;;;;;;;;;17.30;48.60;16.20;99166.00;;;;5056589;28;19932;-62
2021/12/01 03:29:53;;;;;;;;;;;17.30;48.50;16.20;99147.00;;;;5059349;28;19964;-62
2021/12/01 03:32:40;;;;;;;;;;;17.30;48.50;16.20;99157.00;;;;5058333;28;20091;-62
2021/12/01 03:35:26;;;;;;;;;;;17.30;48.60;16.20;99151.00;;;;5052421;28;19924;-61
2021/12/01 03:38:12;;;;;;;;;;;17.30;48.70;16.20;99144.00;;;;5065354;28;19920;-62
2021/12/01 03:40:58;;;;;;;;;;;17.30;48.70;16.20;99146.00;;;;5061832;28;20369;-61
2021/12/01 03:43:45;;;;;;;;;;;17.30;48.70;16.20;99147.00;;;;5060455;28;19923;-62
2021/12/01 03:46:31;;;;;;;;;;;17.30;48.70;16.20;99132.00;;;;5060876;28;19944;-62
2021/12/01 03:49:17;;;;;;;;;;;17.30;48.70;16.20;99117.00;;;;5060408;28;19930;-62
2021/12/01 03:52:05;;;;;;;;;;;17.30;48.70;16.20;99124.00;;;;5080074;28;19922;-61
2021/12/01 03:54:51;;;;;;;;;;;17.30;48.60;16.20;99130.00;;;;5048264;28;19920;-62
2021/12/01 03:57:38;;;;;;;;;;;17.30;48.60;16.20;99120.00;;;;5051000;28;19929;-61
2021/12/01 04:00:24;;;;;;;;;;;17.20;48.70;16.20;99103.00;;;;5068254;28;19921;-61
2021/12/01 04:03:10;;;;;;;;;;;17.20;48.70;16.20;99107.00;;;;5049753;28;19917;-61
2021/12/01 04:05:56;;;;;;;;;;;17.20;48.70;16.20;99099.00;;;;5064439;28;19916;-61
2021/12/01 04:08:42;;;;;;;;;;;17.20;48.70;16.10;99084.00;;;;5059451;28;20354;-62
2021/12/01 04:11:28;;;;;;;;;;;17.30;48.80;16.20;99071.00;;;;5060337;28;20281;-61
2021/12/01 04:14:14;;;;;;;;;;;17.20;48.70;16.10;99065.00;;;;5061265;28;20346;-61
2021/12/01 04:17:00;;;;;;;;;;;17.20;48.80;16.10;99066.00;;;;5080042;28;19923;-62
2021/12/01 04:19:46;;;;;;;;;;;17.20;48.80;16.10;99058.00;;;;5069366;28;20011;-61
2021/12/01 04:22:32;;;;;;;;;;;17.20;48.80;16.10;99051.00;;;;5067525;28;19938;-61
2021/12/01 04:25:19;;;;;;;;;;;17.20;48.80;16.10;99047.00;;;;5053198;28;19931;-61
2021/12/01 04:28:05;;;;;;;;;;;17.20;48.80;16.10;99028.00;;;;5062191;28;19916;-61
2021/12/01 04:30:51;;;;;;;;;;;17.20;48.80;16.20;99029.00;;;;5072749;28;19917;-61
2021/12/01 04:33:37;;;;;;;;;;;17.20;48.80;16.20;99028.00;;;;5068045;28;19928;-61
2021/12/01 04:36:29;;;;;;;;;;;17.30;48.80;16.20;99022.00;;;;5059949;28;19962;-61
2021/12/01 04:39:15;;;;;;;;;;;17.20;48.80;16.10;99015.00;;;;5074079;28;20004;-61
2021/12/01 04:42:05;;;;;;;;;;;17.30;48.80;16.10;99006.00;;;;5070172;28;19952;-62
2021/12/01 04:44:51;;;;;;;;;;;17.20;48.70;16.10;99014.00;;;;5055887;28;19923;-62
2021/12/01 04:47:41;;;;;;;;;;;17.20;48.70;16.10;99008.00;;;;5064891;28;19920;-62
2021/12/01 04:50:27;;;;;;;;;;;17.20;48.80;16.10;99003.00;;;;5072687;28;20327;-61
2021/12/01 04:53:13;;;;;;;;;;;17.20;48.80;16.10;99002.00;;;;5044186;28;20011;-62
2021/12/01 04:55:59;;;;;;;;;;;17.20;48.80;16.10;98982.00;;;;5066644;28;20350;-62
2021/12/01 04:58:48;;;;;;;;;;;17.20;48.80;16.10;98982.00;;;;5078503;28;19916;-62
2021/12/01 05:01:35;;;;;;;;;;;17.20;48.80;16.10;98969.00;;;;5069122;28;19998;-62
2021/12/01 05:04:21;;;;;;;;;;;17.20;48.80;16.10;98971.00;;;;5068367;28;19923;-61
2021/12/01 05:07:08;;;;;;;;;;;17.20;48.90;16.10;98967.00;;;;5056730;28;20404;-62
2021/12/01 05:09:56;;;;;;;;;;;17.20;48.80;16.10;98955.00;;;;5066928;28;19928;-62
2021/12/01 05:12:42;;;;;;;;;;;17.20;48.80;16.10;98960.00;;;;5044964;28;19916;-61
2021/12/01 05:15:28;;;;;;;;;;;17.20;48.80;16.10;98954.00;;;;5058008;28;19920;-63
2021/12/01 05:18:14;;;;;;;;;;;17.20;48.80;16.10;98930.00;;;;5048172;28;19917;-61
2021/12/01 05:21:00;;;;;;;;;;;17.20;48.80;16.10;98943.00;;;;5066683;28;20015;-62
2021/12/01 05:23:46;;;;;;;;;;;17.20;48.80;16.10;98929.00;;;;5054419;28;19948;-62
2021/12/01 05:26:32;;;;;;;;;;;17.10;48.80;16.10;98920.00;;;;5056108;28;19968;-62
2021/12/01 05:29:20;;;;;;;;;;;17.20;48.80;16.10;98911.00;;;;5068838;28;19917;-62
2021/12/01 05:32:07;;;;;;;;;;;17.10;48.70;16.10;98910.00;;;;5065511;28;19916;-62
2021/12/01 05:34:53;;;;;;;;;;;17.10;48.70;16.10;98900.00;;;;5069708;28;19923;-62
2021/12/01 05:37:39;;;;;;;;;;;17.10;48.70;16.10;98890.00;;;;5075280;28;20289;-62
2021/12/01 05:40:25;;;;;;;;;;;17.10;48.80;16.10;98883.00;;;;5071413;28;20014;-62
2021/12/01 05:43:11;;;;;;;;;;;17.10;48.70;16.10;98874.00;;;;5067708;28;19924;-61
2021/12/01 05:45:57;;;;;;;;;;;17.10;48.70;16.10;98872.00;;;;5069467;28;19928;-61
2021/12/01 05:48:43;;;;;;;;;;;17.10;48.70;16.10;98854.00;;;;5058769;28;19938;-61
2021/12/01 05:51:29;;;;;;;;;;;17.10;48.70;16.10;98851.00;;;;5068288;28;20011;-61
2021/12/01 05:54:16;;;;;;;;;;;17.10;48.70;16.10;98821.00;;;;5064753;28;19923;-62
2021/12/01 05:57:02;;;;;;;;;;;17.10;48.70;16.10;98820.00;;;;5071716;28;19916;-62
2021/12/01 05:59:48;;;;;;;;;;;17.10;48.70;16.00;98816.00;;;;5058787;28;20369;-61
2021/12/01 06:02:34;;;;;;;;;;;17.10;48.60;16.10;98809.00;;;;5066820;28;19920;-62
2021/12/01 06:05:20;;;;;;;;;;;17.10;48.60;16.00;98809.00;;;;5080053;27;19940;-62
2021/12/01 06:08:06;;;;;;;;;;;17.10;48.60;16.00;98800.00;;;;5064195;28;20321;-61
2021/12/01 06:10:53;;;;;;;;;;;17.10;48.50;16.00;98787.00;;;;5066513;28;19942;-62
2021/12/01 06:13:40;;;;;;;;;;;17.10;48.70;16.00;98781.00;;;;5081323;28;19924;-61
2021/12/01 06:16:26;;;;;;;;;;;17.10;48.60;16.00;98813.00;;;;5059364;28;20022;-61
2021/12/01 06:19:13;;;;;;;;;;;17.10;48.70;16.00;98783.00;;;;5067807;28;19920;-61
2021/12/01 06:21:59;;;;;;;;;;;17.10;48.60;16.00;98774.00;;;;5068450;28;19927;-61
2021/12/01 06:24:45;;;;;;;;;;;17.10;48.60;16.00;98783.00;;;;5059473;28;19950;-61
2021/12/01 06:27:31;;;;;;;;;;;17.10;48.70;16.00;98768.00;;;;5042094;28;19970;-62
2021/12/01 06:30:18;;;;;;;;;;;17.10;48.70;16.00;98775.00;;;;5060298;28;22212;-61
2021/12/01 06:33:05;;;;;;;;;;;17.10;48.70;16.00;98770.00;;;;5070277;28;19921;-62
2021/12/01 06:35:52;;;;;;;;;;;17.00;48.70;16.00;98764.00;;;;5065871;28;20010;-62
2021/12/01 06:38:39;;;;;;;;;;;17.00;48.70;16.00;98759.00;;;;5049784;28;20027;-62
2021/12/01 06:41:25;;;;;;;;;;;17.10;48.70;16.00;98752.00;;;;5068956;28;19924;-61
2021/12/01 06:44:11;;;;;;;;;;;17.10;48.70;16.00;98755.00;;;;5068846;28;20269;-62
2021/12/01 06:46:58;;;;;;;;;;;17.00;48.70;16.00;98743.00;;;;5061099;28;20422;-62
2021/12/01 06:49:45;;;;;;;;;;;17.10;48.70;16.00;98733.00;;;;5063026;28;19916;-61
2021/12/01 06:52:32;;;;;;;;;;;17.10;48.70;16.00;98731.00;;;;5068615;28;19917;-61
2021/12/01 06:55:20;;;;;;;;;;;17.10;48.70;16.00;98718.00;;;;5053136;28;19916;-62
2021/12/01 06:58:06;;;;;;;;;;;17.10;48.70;16.00;98726.00;;;;5067310;28;19916;-62
2021/12/01 07:00:52;;;;;;;;;;;17.10;48.70;16.00;98714.00;;;;5056381;28;19920;-61
2021/12/01 07:03:38;;;;;;;;;;;17.00;48.70;16.00;98718.00;;;;5074638;28;19948;-62
2021/12/01 07:06:25;;;;;;;;;;;17.10;48.70;16.00;98710.00;;;;5062173;28;19974;-61
2021/12/01 07:09:17;;;;;;;;;;;17.10;48.70;16.00;98697.00;;;;5056908;28;20357;-61
2021/12/01 07:12:04;;;;;;;;;;;17.10;48.70;16.00;98685.00;;;;5065998;28;19923;-61
2021/12/01 07:14:51;;;;;;;;;;;17.10;48.70;16.00;98674.00;;;;5073180;28;21836;-61
2021/12/01 07:17:37;;;;;;;;;;;17.10;48.70;16.00;98673.00;;;;5062864;28;20171;-61
2021/12/01 07:20:23;;;;;;;;;;;17.00;48.70;16.00;98673.00;;;;5073671;28;20004;-61
2021/12/01 07:23:09;;;;;;;;;;;17.00;48.70;16.00;98665.00;;;;5072207;28;20403;-61
2021/12/01 07:25:55;;;;;;;;;;;17.10;48.70;16.00;98672.00;;;;5060444;28;19939;-61
2021/12/01 07:28:41;;;;;;;;;;;17.00;48.70;16.00;98658.00;;;;5067865;28;19921;-62
2021/12/01 07:31:27;;;;;;;;;;;17.10;48.70;16.00;98656.00;;;;5072989;28;20302;-61
2021/12/01 07:34:13;;;;;;;;;;;17.00;48.60;16.00;98656.00;;;;5072165;28;19916;-62
2021/12/01 07:36:59;;;;;;;;;;;17.10;48.70;16.00;98652.00;;;;5066082;28;19927;-61
2021/12/01 07:39:46;;;;;;;;;;;17.00;48.60;16.00;98640.00;;;;5068900;28;19921;-61
2021/12/01 07:42:32;;;;;;;;;;;17.00;48.70;16.00;98638.00;;;;5061124;28;20049;-61
2021/12/01 07:45:18;;;;;;;;;;;17.00;48.70;16.00;98624.00;;;;5076535;28;19917;-61
2021/12/01 07:48:04;;;;;;;;;;;17.00;48.70;16.00;98632.00;;;;5071284;28;19921;-62
2021/12/01 07:50:50;;;;;;;;;;;17.00;48.70;16.00;98614.00;;;;5078774;28;20422;-62
2021/12/01 07:53:36;;;;;;;;;;;17.00;48.60;16.00;98614.00;;;;5057203;28;19917;-62
2021/12/01 07:56:23;;;;;;;;;;;17.00;48.70;16.00;98605.00;;;;5057702;28;19916;-62
2021/12/01 07:59:10;;;;;;;;;;;17.00;48.70;16.00;98604.00;;;;5073687;28;19949;-61
2021/12/01 08:01:57;;;;;;;;;;;17.00;48.70;16.00;98604.00;;;;5070559;28;19916;-62
2021/12/01 08:04:43;;;;;;;;;;;17.00;48.80;16.00;98604.00;;;;5083342;27;20342;-62
2021/12/01 08:07:33;;;;;;;;;;;17.00;48.80;16.00;98582.00;;;;5062698;28;19928;-61
2021/12/01 08:10:19;;;;;;;;;;;17.00;48.80;16.00;98588.00;;;;5067659;28;19924;-62
2021/12/01 08:13:05;;;;;;;;;;;17.00;48.70;15.90;98583.00;;;;5064437;28;20290;-61
2021/12/01 08:15:51;;;;;;;;;;;17.00;48.80;15.90;98577.00;;;;5085839;28;19917;-62
2021/12/01 08:18:37;;;;;;;;;;;17.00;48.80;16.00;98571.00;;;;5074071;28;19920;-62
2021/12/01 08:21:24;;;;;;;;;;;17.00;48.80;16.00;98566.00;;;;5057602;28;19963;-61
2021/12/01 08:24:12;;;;;;;;;;;17.00;48.80;15.90;98547.00;;;;5065066;28;19924;-61
2021/12/01 08:26:58;;;;;;;;;;;17.00;48.80;15.90;98548.00;;;;5057181;28;19928;-62
2021/12/01 08:29:44;;;;;;;;;;;17.00;48.70;16.00;98549.00;;;;5065341;28;19962;-62
2021/12/01 08:32:30;;;;;;;;;;;17.00;48.90;16.00;98543.00;;;;5061000;28;19924;-62
2021/12/01 08:35:16;;;;;;;;;;;17.00;48.90;16.00;98548.00;;;;5057747;28;20084;-61
2021/12/01 08:38:02;;;;;;;;;;;17.00;48.80;16.00;98548.00;;;;5066445;28;20262;-62
2021/12/01 08:40:48;;;;;;;;;;;17.00;49.00;16.00;98520.00;;;;5071518;28;20285;-62
2021/12/01 08:43:34;;;;;;;;;;;17.00;48.90;15.90;98522.00;;;;5070209;28;20438;-61
2021/12/01 08:46:20;;;;;;;;;;;17.00;48.90;16.00;98529.00;;;;5051504;28;19917;-61
2021/12/01 08:49:07;;;;;;;;;;;17.00;48.90;16.00;98522.00;;;;5046244;28;19917;-61
2021/12/01 08:51:53;;;;;;;;;;;17.00;48.90;15.90;98509.00;;;;5045572;28;20182;-62
2021/12/01 08:54:39;;;;;;;;;;;17.00;48.80;15.90;98505.00;;;;5062475;28;19920;-61
2021/12/01 08:57:25;;;;;;;;;;;17.00;48.80;15.90;98513.00;;;;5062355;28;19916;-62
2021/12/01 09:00:12;;;;;;;;;;;17.00;48.90;15.90;98491.00;;;;5061377;28;19957;-62
2021/12/01 09:02:58;;;;;;;;;;;17.00;48.90;15.90;98494.00;;;;5059978;28;19921;-61
2021/12/01 09:05:45;;;;;;;;;;;17.00;48.90;15.90;98483.00;;;;5049499;28;19917;-61
2021/12/01 09:08:31;;;;;;;;;;;17.00;48.90;15.90;98486.00;;;;5053709;28;20454;-62
2021/12/01 09:11:17;;;;;;;;;;;16.90;48.90;15.90;98478.00;;;;5072509;28;20011;-61
2021/12/01 09:14:03;;;;;;;;;;;17.00;48.90;15.90;98486.00;;;;5069722;28;19917;-62
2021/12/01 09:16:50;;;;;;;;;;;17.00;49.00;15.90;98480.00;;;;5042385;28;20395;-62
2021/12/01 09:19:36;;;;;;;;;;;17.00;49.00;15.90;98465.00;;;;5078064;28;19920;-61
2021/12/01 09:22:22;;;;;;;;;;;16.90;48.90;15.90;98482.00;;;;5061189;28;19925;-62
2021/12/01 09:25:08;;;;;;;;;;;17.00;49.00;15.90;98481.00;;;;5059459;28;19975;-62
2021/12/01 09:27:54;;;;;;;;;;;17.00;49.00;15.90;98476.00;;;;5057807;28;20025;-61
2021/12/01 09:30:41;;;;;;;;;;;17.00;49.10;15.90;98475.00;;;;5057607;28;19916;-61
2021/12/01 09:33:29;;;;;;;;;;;16.90;49.00;15.90;98482.00;;;;5072209;28;19951;-61
2021/12/01 09:36:15;;;;;;;;;;;17.00;49.00;15.90;98472.00;;;;5074523;28;19959;-61
2021/12/01 09:39:02;;;;;;;;;;;17.00;49.10;15.90;98462.00;;;;5062652;28;19927;-61
2021/12/01 09:41:49;;;;;;;;;;;17.00;49.10;15.90;98459.00;;;;5047644;28;19921;-61
2021/12/01 09:44:35;;;;;;;;;;;17.00;49.20;15.90;98467.00;;;;5044767;28;19916;-61
2021/12/01 09:47:21;;;;;;;;;;;17.00;49.10;15.90;98455.00;;;;5068427;28;19917;-61
2021/12/01 09:50:08;;;;;;;;;;;17.00;49.20;15.90;98446.00;;;;5050969;28;20328;-61
2021/12/01 09:52:54;;;;;;;;;;;17.00;49.20;15.90;98439.00;;;;5065597;28;20529;-61
2021/12/01 09:55:41;;;;;;;;;;;17.00;49.20;15.90;98432.00;;;;5085268;28;19916;-61
2021/12/01 09:58:31;;;;;;;;;;;17.00;49.30;15.90;98428.00;;;;5068188;28;20416;-61
2021/12/01 10:01:18;;;;;;;;;;;17.00;49.20;15.90;98417.00;;;;5056105;28;19929;-61
2021/12/01 10:04:04;;;;;;;;;;;17.00;49.20;15.90;98425.00;;;;5070362;28;19956;-61
2021/12/01 10:06:51;;;;;;;;;;;16.90;49.20;15.90;98418.00;;;;5060865;28;19923;-62
2021/12/01 10:09:43;;;;;;;;;;;17.00;49.20;15.90;98403.00;;;;5058580;28;19921;-61
2021/12/01 10:12:47;;;;;;;;;;;17.00;49.30;15.90;98408.00;;;;5069110;28;19920;-61
2021/12/01 10:15:33;;;;;;;;;;;17.00;49.20;15.90;98410.00;;;;5079225;28;19920;-62
2021/12/01 10:18:19;;;;;;;;;;;17.00;49.20;15.90;98402.00;;;;5061318;28;19916;-62
2021/12/01 10:21:14;;;;;;;;;;;17.00;49.30;15.90;98396.00;;;;5068909;28;19974;-61
2021/12/01 10:24:23;;;;;;;;;;;17.00;49.30;15.90;98386.00;;;;5078958;28;19964;-62
2021/12/01 10:27:11;;;;;;;;;;;17.00;49.20;15.90;98384.00;;;;5065661;28;19919;-61
2021/12/01 10:29:58;;;;;;;;;;;17.00;49.40;15.90;98391.00;;;;5084379;28;19921;-62
2021/12/01 10:32:44;;;;;;;;;;;17.00;49.30;15.90;98392.00;;;;5070933;28;19979;-62
2021/12/01 10:35:34;;;;;;;;;;;17.00;49.40;16.00;98398.00;;;;5073864;28;19923;-62
2021/12/01 10:38:29;;;;;;;;;;;17.00;49.50;16.00;98385.00;;;;5078259;28;19924;-62
2021/12/01 10:41:16;;;;;;;;;;;17.00;49.40;16.00;98380.00;;;;5066669;28;19928;-62
2021/12/01 10:44:16;;;;;;;;;;;17.00;49.30;16.00;98390.00;;;;5082721;28;19920;-62
2021/12/01 10:47:10;;;;;;;;;;;17.00;49.30;16.00;98391.00;;;;5048066;28;20432;-62
2021/12/01 10:49:57;;;;;;;;;;;17.00;49.10;15.90;98399.00;;;;5067776;28;20488;-62
2021/12/01 10:52:49;;;;;;;;;;;17.00;49.20;15.90;98391.00;;;;5069283;28;19920;-61
2021/12/01 10:55:50;;;;;;;;;;;17.00;49.20;15.90;98400.00;;;;5091972;27;19924;-62
2021/12/01 10:58:40;;;;;;;;;;;17.00;49.20;15.90;98395.00;;;;5068177;28;20040;-61
2021/12/01 11:01:26;;;;;;;;;;;17.00;49.20;15.90;98395.00;;;;5060945;28;19924;-61
2021/12/01 11:04:12;;;;;;;;;;;17.00;49.30;15.90;98372.00;;;;5052267;28;19923;-62
2021/12/01 11:06:58;;;;;;;;;;;17.00;50.10;15.90;98379.00;;;;5065402;28;20323;-61
2021/12/01 11:09:44;;;;;;;;;;;16.90;49.40;15.90;98373.00;;;;5064592;28;19920;-62
2021/12/01 11:12:32;;;;;;;;;;;16.90;49.40;15.90;98395.00;;;;5052972;28;19924;-61
2021/12/01 11:15:24;;;;;;;;;;;16.90;49.30;15.90;98384.00;;;;5070389;28;19924;-62
2021/12/01 11:18:16;;;;;;;;;;;16.90;49.30;15.90;98390.00;;;;5052641;28;19917;-62
2021/12/01 11:21:16;;;;;;;;;;;16.90;49.20;15.90;98387.00;;;;5057575;28;19923;-61
2021/12/01 11:24:06;;;;;;;;;;;16.90;49.20;15.90;98393.00;;;;5070808;28;20362;-61
2021/12/01 11:26:52;;;;;;;;;;;16.90;49.20;15.90;98400.00;;;;5067978;28;20392;-61
2021/12/01 11:29:39;;;;;;;;;;;16.90;49.30;15.90;98387.00;;;;5077020;28;20342;-61
2021/12/01 11:32:25;;;;;;;;;;;16.90;49.30;15.90;98377.00;;;;5069618;28;19937;-61
2021/12/01 11:35:12;;;;;;;;;;;16.90;49.30;15.90;98394.00;;;;5056255;28;19916;-61
2021/12/01 11:37:58;;;;;;;;;;;16.90;49.30;15.90;98384.00;;;;5056407;28;19921;-62
2021/12/01 11:40:44;;;;;;;;;;;16.90;49.30;15.90;98386.00;;;;5072268;28;20058;-61
2021/12/01 11:43:31;;;;;;;;;;;16.90;49.20;15.90;98377.00;;;;5065498;28;19916;-62
2021/12/01 11:46:17;;;;;;;;;;;16.90;49.10;15.90;98372.00;;;;5060388;28;19916;-61
2021/12/01 11:49:06;;;;;;;;;;;17.00;49.20;15.90;98371.00;;;;5036230;28;19929;-62
2021/12/01 11:51:57;;;;;;;;;;;16.90;49.20;15.90;98370.00;;;;5061012;28;19952;-61
2021/12/01 11:54:44;;;;;;;;;;;17.00;49.20;15.90;98366.00;;;;5065278;28;19917;-61
2021/12/01 11:57:49;;;;;;;;;;;16.90;49.20;15.90;98374.00;;;;5037017;28;19917;-61
2021/12/01 12:00:44;;;;;;;;;;;17.00;49.20;15.90;98377.00;;;;5052083;28;19931;-62
2021/12/01 12:03:31;;;;;;;;;;;17.00;49.20;15.90;98379.00;;;;5048633;28;19931;-61
2021/12/01 12:06:20;;;;;;;;;;;17.00;49.30;15.90;98376.00;;;;5047171;28;19978;-61
2021/12/01 12:09:10;;;;;;;;;;;17.00;49.30;16.00;98377.00;;;;5045830;28;19931;-62
2021/12/01 12:12:09;;;;;;;;;;;17.00;49.30;16.00;98375.00;;;;5055027;28;19928;-61
2021/12/01 12:14:55;;;;;;;;;;;17.00;49.30;16.00;98374.00;;;;5056093;28;20041;-61
2021/12/01 12:17:41;;;;;;;;;;;17.00;49.20;16.00;98384.00;;;;5072011;28;20281;-62
2021/12/01 12:20:31;;;;;;;;;;;17.00;49.30;16.00;98378.00;;;;5070292;28;20417;-61
2021/12/01 12:23:17;;;;;;;;;;;17.00;49.20;16.00;98380.00;;;;5063756;28;20015;-61
2021/12/01 12:26:04;;;;;;;;;;;17.00;49.20;16.00;98374.00;;;;5073517;28;19920;-62
2021/12/01 12:28:50;;;;;;;;;;;17.00;49.20;16.00;98370.00;;;;5083533;28;19916;-62
2021/12/01 12:31:36;;;;;;;;;;;17.10;49.20;16.00;98364.00;;;;5068438;28;20146;-61
2021/12/01 12:34:23;;;;;;;;;;;17.10;49.20;16.00;98352.00;;;;5082992;27;19916;-62
2021/12/01 12:37:23;;;;;;;;;;;17.10;49.10;16.00;98348.00;;;;5072505;28;19916;-61
2021/12/01 12:40:21;;;;;;;;;;;17.10;49.00;16.00;98351.00;;;;5073385;28;19920;-61
2021/12/01 12:43:12;;;;;;;;;;;17.10;48.90;16.00;98360.00;;;;5068623;28;19924;-61
2021/12/01 12:46:03;;;;;;;;;;;17.00;48.80;16.00;98348.00;;;;5073309;28;20020;-61
2021/12/01 12:48:52;;;;;;;;;;;17.00;48.90;16.00;98350.00;;;;5069003;28;20314;-62
2021/12/01 12:51:40;;;;;;;;;;;17.00;48.90;16.00;98353.00;;;;5046967;28;20266;-62
2021/12/01 12:54:26;;;;;;;;;;;17.00;48.90;16.00;98351.00;;;;5077292;28;19932;-62
2021/12/01 12:57:14;;;;;;;;;;;17.00;48.90;16.00;98333.00;;;;5055466;28;19924;-61
2021/12/01 13:00:27;;;;;;;;;;;17.00;49.00;15.90;98337.00;;;;5056772;28;19927;-62
2021/12/01 13:03:23;;;;;;;;;;;17.00;48.90;15.90;98339.00;;;;5055511;28;20304;-62
2021/12/01 13:06:09;;;;;;;;;;;17.00;48.90;15.90;98333.00;;;;5060927;28;19924;-61
2021/12/01 13:09:14;;;;;;;;;;;17.00;48.90;15.90;98329.00;;;;5084391;28;20019;-61
2021/12/01 13:12:00;;;;;;;;;;;17.00;48.90;15.90;98342.00;;;;5061690;28;19920;-61
2021/12/01 13:14:48;;;;;;;;;;;17.00;48.90;15.90;98335.00;;;;5063612;28;19924;-62
2021/12/01 13:17:34;;;;;;;;;;;17.00;48.80;15.90;98324.00;;;;5035688;28;20270;-61
2021/12/01 13:20:24;;;;;;;;;;;17.00;48.90;15.90;98327.00;;;;5074252;28;19920;-61
2021/12/01 13:23:13;;;;;;;;;;;17.00;48.80;15.90;98323.00;;;;5047596;28;19917;-62
2021/12/01 13:26:03;;;;;;;;;;;17.00;48.90;15.90;98327.00;;;;5065678;28;19921;-61
2021/12/01 13:28:56;;;;;;;;;;;16.90;48.70;15.90;98324.00;;;;5059418;28;20337;-61
2021/12/01 13:31:44;;;;;;;;;;;17.00;48.90;15.90;98317.00;;;;5065129;28;19972;-61
2021/12/01 13:34:34;;;;;;;;;;;16.90;48.80;15.90;98328.00;;;;5072194;28;19916;-61
2021/12/01 13:37:20;;;;;;;;;;;16.90;48.70;15.90;98314.00;;;;5062897;28;20029;-61
2021/12/01 13:40:11;;;;;;;;;;;16.90;48.80;15.90;98320.00;;;;5064907;28;19933;-61
2021/12/01 13:42:57;;;;;;;;;;;16.90;48.80;15.90;98320.00;;;;5073905;28;20065;-61
2021/12/01 13:46:15;;;;;;;;;;;16.90;48.80;15.90;98323.00;;;;5065495;28;19922;-61
2021/12/01 13:49:01;;;;;;;;;;;16.90;48.70;15.90;98335.00;;;;5066712;28;19924;-61
2021/12/01 13:51:48;;;;;;;;;;;16.90;48.70;15.90;98314.00;;;;5070936;28;20093;-61
2021/12/01 13:54:34;;;;;;;;;;;16.90;48.70;15.90;98317.00;;;;5077497;28;19959;-61
2021/12/01 13:57:21;;;;;;;;;;;16.90;48.70;15.90;98317.00;;;;5089214;28;20011;-61
2021/12/01 14:00:07;;;;;;;;;;;16.90;48.60;15.90;98318.00;;;;5073590;28;19928;-61
2021/12/01 14:02:53;;;;;;;;;;;16.90;48.70;15.90;98324.00;;;;5079873;28;20365;-61